Z E U S — IFWZ — position and weather

sailwx.info

Track history (hours):
 
Tides and Currents Weather Stations Pressure Air Temp Water Temp Dewpoint Dewpoint Depression Visibility Wind Speed Wind Dir Waves Ship Positions

Z E U S

Last reported at 2015-Aug-04 13:33 UTC. Time now 2015-Aug-04 13:56 UTC.
Position N 38°01' E 012°31'.

Length 53 m; draft 2.5 m.

Type: Ship (hazmat cat C). MMSI: 247072100.

Date/timePositionNaut miles runAvg speedWind from/ knotsBaromVisibWave heightAir tempDewpointWater temp
2015-Aug-04 13:33N 38°01' E 012°31'0 0.0
2015-Aug-04 12:33N 38°01' E 012°31'2 2.4
2015-Aug-04 11:33N 37°59' E 012°28'8 7.8
2015-Aug-04 10:33N 37°56' E 012°20'4 3.6
2015-Aug-04 09:33N 37°58' E 012°15'9 8.5
2015-Aug-04 08:33N 37°58' E 012°05'1 1.0
2015-Aug-04 07:33N 37°58' E 012°06'1010.4
2015-Aug-04 06:33N 37°58' E 012°19'5 4.9
2015-Aug-04 05:33N 37°58' E 012°25'5 5.1
2015-Aug-04 04:33N 38°01' E 012°31'0 0.0
2015-Aug-03 14:33N 38°01' E 012°31'0 0.0
2015-Aug-03 13:33N 38°01' E 012°31'7 6.6
2015-Aug-03 12:33N 37°57' E 012°23'3 3.4
2015-Aug-03 11:33N 37°56' E 012°20'0 0.0
2015-Aug-03 10:33N 37°56' E 012°20'10 9.7
2015-Aug-03 09:33N 38°01' E 012°30'0 0.4
2015-Aug-03 08:33N 38°01' E 012°31'10 9.8
2015-Aug-03 07:33N 37°56' E 012°20'1 1.5
2015-Aug-03 06:33N 37°58' E 012°20'4 3.7
2015-Aug-03 05:33N 37°58' E 012°25'5 5.3
2015-Aug-03 04:33N 38°01' E 012°31'0 0.0
2015-Aug-01 13:25N 38°01' E 012°31'5 5.5
2015-Aug-01 12:33N 37°58' E 012°26'5 5.3
2015-Aug-01 11:33N 37°56' E 012°20'0 0.0
2015-Aug-01 10:33N 37°56' E 012°19'1010.0
2015-Aug-01 09:33N 38°01' E 012°31'4 4.5
2015-Aug-01 08:33N 37°58' E 012°26'5 5.4
2015-Aug-01 07:33N 37°57' E 012°19'1 0.9
2015-Aug-01 06:33N 37°57' E 012°20'4 4.3
2015-Aug-01 05:33N 37°58' E 012°25'5 5.1
2015-Aug-01 04:33N 38°01' E 012°31'0 0.0
2015-Jul-31 14:32N 38°01' E 012°31'0 0.0
2015-Jul-31 13:33N 38°01' E 012°31'0 0.0
2015-Jul-31 12:33N 38°01' E 012°31'3 2.9
2015-Jul-31 11:33N 37°59' E 012°28'7 7.2
2015-Jul-31 10:33N 37°56' E 012°20'3 2.7
2015-Jul-31 09:33N 37°59' E 012°19'1010.3
2015-Jul-31 08:33N 37°58' E 012°06'0 0.4
2015-Jul-31 07:33N 37°58' E 012°06'1010.0
2015-Jul-31 06:33N 37°58' E 012°19'5 5.2
2015-Jul-31 05:33N 37°59' E 012°25'5 4.9
2015-Jul-31 04:33N 38°01' E 012°31'0 0.0
2015-Jul-30 13:34N 38°01' E 012°31'4 3.9
2015-Jul-30 12:34N 37°59' E 012°27'6 6.3
2015-Jul-30 11:34N 37°56' E 012°19'2 1.5
2015-Jul-30 10:34N 37°57' E 012°21'9 8.5
2015-Jul-30 09:33N 38°01' E 012°31'2 2.0
2015-Jul-30 08:34N 37°60' E 012°29'8 8.2
2015-Jul-30 07:34N 37°56' E 012°20'2 2.4
2015-Jul-30 06:33N 37°58' E 012°20'4 3.9
2015-Jul-30 05:33N 37°59' E 012°25'5 5.0
2015-Jul-30 04:33N 38°01' E 012°31'0 0.0
2015-Jul-29 13:31N 38°01' E 012°31'4 4.2
2015-Jul-29 12:33N 37°59' E 012°26'6 6.1
2015-Jul-29 11:33N 37°56' E 012°20'0 0.0
2015-Jul-29 10:33N 37°56' E 012°20'10 9.8
2015-Jul-29 09:33N 38°01' E 012°30'3 2.6
2015-Jul-29 08:33N 37°59' E 012°28'7 7.2
2015-Jul-29 07:33N 37°56' E 012°20'2 2.5
2015-Jul-29 06:33N 37°58' E 012°20'3 3.5
2015-Jul-29 05:33N 37°58' E 012°25'5 5.4
2015-Jul-29 04:33N 38°01' E 012°31'0 0.0
2015-Jul-28 14:09N 38°01' E 012°31'0 0.0
2015-Jul-28 13:33N 38°01' E 012°31'0 0.0
2015-Jul-28 12:33N 38°01' E 012°31'3 3.2
2015-Jul-28 11:33N 37°59' E 012°27'7 7.0
2015-Jul-28 10:33N 37°56' E 012°20'3 3.0
2015-Jul-28 09:33N 37°58' E 012°17'10 9.5
2015-Jul-28 08:33N 37°58' E 012°05'18 5.6
2015-Jul-28 05:25N 37°59' E 012°27'3 4.0
2015-Jul-28 04:33N 38°01' E 012°31'0 0.0
2015-Jul-27 15:34N 38°01' E 012°31'0 0.0
2015-Jul-27 14:34N 38°01' E 012°31'0 0.0
2015-Jul-27 13:34N 38°01' E 012°31'8 8.4
2015-Jul-27 12:34N 37°57' E 012°21'2 1.7
2015-Jul-27 11:34N 37°56' E 012°20'2 1.8
2015-Jul-27 10:34N 37°57' E 012°21'8 8.3
2015-Jul-27 09:33N 38°01' E 012°31'1 0.7
2015-Jul-27 08:33N 38°00' E 012°30'9 9.5
2015-Jul-27 07:33N 37°56' E 012°20'2 2.2
2015-Jul-27 06:33N 37°58' E 012°20'5 4.8
2015-Jul-27 05:33N 37°59' E 012°26'5 4.5
2015-Jul-27 04:33N 38°01' E 012°31'  
Track history (hours):
 
Tides and Currents Weather Stations Pressure Air Temp Water Temp Dewpoint Dewpoint Depression Visibility Wind Speed Wind Dir Waves Ship Positions

Z E U S

Last reported at 2015-Aug-04 13:33 UTC. Time now 2015-Aug-04 13:56 UTC.
Position N 38°01' E 012°31'.

Length 53 m; draft 2.5 m.

Type: Ship (hazmat cat C). MMSI: 247072100.

Date/timePositionNaut miles runAvg speedWind from/ knotsBaromVisibWave heightAir tempDewpointWater temp
2015-Aug-04 13:33N 38°01' E 012°31'0 0.0
2015-Aug-04 12:33N 38°01' E 012°31'2 2.4
2015-Aug-04 11:33N 37°59' E 012°28'8 7.8
2015-Aug-04 10:33N 37°56' E 012°20'4 3.6
2015-Aug-04 09:33N 37°58' E 012°15'9 8.5
2015-Aug-04 08:33N 37°58' E 012°05'1 1.0
2015-Aug-04 07:33N 37°58' E 012°06'1010.4
2015-Aug-04 06:33N 37°58' E 012°19'5 4.9
2015-Aug-04 05:33N 37°58' E 012°25'5 5.1
2015-Aug-04 04:33N 38°01' E 012°31'0 0.0
2015-Aug-03 14:33N 38°01' E 012°31'0 0.0
2015-Aug-03 13:33N 38°01' E 012°31'7 6.6
2015-Aug-03 12:33N 37°57' E 012°23'3 3.4
2015-Aug-03 11:33N 37°56' E 012°20'0 0.0
2015-Aug-03 10:33N 37°56' E 012°20'10 9.7
2015-Aug-03 09:33N 38°01' E 012°30'0 0.4
2015-Aug-03 08:33N 38°01' E 012°31'10 9.8
2015-Aug-03 07:33N 37°56' E 012°20'1 1.5
2015-Aug-03 06:33N 37°58' E 012°20'4 3.7
2015-Aug-03 05:33N 37°58' E 012°25'5 5.3
2015-Aug-03 04:33N 38°01' E 012°31'0 0.0
2015-Aug-01 13:25N 38°01' E 012°31'5 5.5
2015-Aug-01 12:33N 37°58' E 012°26'5 5.3
2015-Aug-01 11:33N 37°56' E 012°20'0 0.0
2015-Aug-01 10:33N 37°56' E 012°19'1010.0
2015-Aug-01 09:33N 38°01' E 012°31'4 4.5
2015-Aug-01 08:33N 37°58' E 012°26'5 5.4
2015-Aug-01 07:33N 37°57' E 012°19'1 0.9
2015-Aug-01 06:33N 37°57' E 012°20'4 4.3
2015-Aug-01 05:33N 37°58' E 012°25'5 5.1
2015-Aug-01 04:33N 38°01' E 012°31'0 0.0
2015-Jul-31 14:32N 38°01' E 012°31'0 0.0
2015-Jul-31 13:33N 38°01' E 012°31'0 0.0
2015-Jul-31 12:33N 38°01' E 012°31'3 2.9
2015-Jul-31 11:33N 37°59' E 012°28'7 7.2
2015-Jul-31 10:33N 37°56' E 012°20'3 2.7
2015-Jul-31 09:33N 37°59' E 012°19'1010.3
2015-Jul-31 08:33N 37°58' E 012°06'0 0.4
2015-Jul-31 07:33N 37°58' E 012°06'1010.0
2015-Jul-31 06:33N 37°58' E 012°19'5 5.2
2015-Jul-31 05:33N 37°59' E 012°25'5 4.9
2015-Jul-31 04:33N 38°01' E 012°31'0 0.0
2015-Jul-30 13:34N 38°01' E 012°31'4 3.9
2015-Jul-30 12:34N 37°59' E 012°27'6 6.3
2015-Jul-30 11:34N 37°56' E 012°19'2 1.5
2015-Jul-30 10:34N 37°57' E 012°21'9 8.5
2015-Jul-30 09:33N 38°01' E 012°31'2 2.0
2015-Jul-30 08:34N 37°60' E 012°29'8 8.2
2015-Jul-30 07:34N 37°56' E 012°20'2 2.4
2015-Jul-30 06:33N 37°58' E 012°20'4 3.9
2015-Jul-30 05:33N 37°59' E 012°25'5 5.0
2015-Jul-30 04:33N 38°01' E 012°31'0 0.0
2015-Jul-29 13:31N 38°01' E 012°31'4 4.2
2015-Jul-29 12:33N 37°59' E 012°26'6 6.1
2015-Jul-29 11:33N 37°56' E 012°20'0 0.0
2015-Jul-29 10:33N 37°56' E 012°20'10 9.8
2015-Jul-29 09:33N 38°01' E 012°30'3 2.6
2015-Jul-29 08:33N 37°59' E 012°28'7 7.2
2015-Jul-29 07:33N 37°56' E 012°20'2 2.5
2015-Jul-29 06:33N 37°58' E 012°20'3 3.5
2015-Jul-29 05:33N 37°58' E 012°25'5 5.4
2015-Jul-29 04:33N 38°01' E 012°31'0 0.0
2015-Jul-28 14:09N 38°01' E 012°31'0 0.0
2015-Jul-28 13:33N 38°01' E 012°31'0 0.0
2015-Jul-28 12:33N 38°01' E 012°31'3 3.2
2015-Jul-28 11:33N 37°59' E 012°27'7 7.0
2015-Jul-28 10:33N 37°56' E 012°20'3 3.0
2015-Jul-28 09:33N 37°58' E 012°17'10 9.5
2015-Jul-28 08:33N 37°58' E 012°05'18 5.6
2015-Jul-28 05:25N 37°59' E 012°27'3 4.0
2015-Jul-28 04:33N 38°01' E 012°31'0 0.0
2015-Jul-27 15:34N 38°01' E 012°31'0 0.0
2015-Jul-27 14:34N 38°01' E 012°31'0 0.0
2015-Jul-27 13:34N 38°01' E 012°31'8 8.4
2015-Jul-27 12:34N 37°57' E 012°21'2 1.7
2015-Jul-27 11:34N 37°56' E 012°20'2 1.8
2015-Jul-27 10:34N 37°57' E 012°21'8 8.3
2015-Jul-27 09:33N 38°01' E 012°31'1 0.7
2015-Jul-27 08:33N 38°00' E 012°30'9 9.5
2015-Jul-27 07:33N 37°56' E 012°20'2 2.2
2015-Jul-27 06:33N 37°58' E 012°20'5 4.8
2015-Jul-27 05:33N 37°59' E 012°26'5 4.5
2015-Jul-27 04:33N 38°01' E 012°31'  

Dump ship's entire track history